Estaca de Bares, Galicia

latitud = 43° 47' 14''N | longitud = 007° 41' 00''W
59 metros sobre el nivel del mar | datos mensuales

Fecha, hora, temperatura, viento dirección y velocidad, humedad y presión.

  • 14-10-2018 19:00:00 | 14.20°C | Oeste |22.00 km/h | 77.00% | 1000.60 hPa
  • 14-10-2018 18:00:00 | 15.70°C | Oeste |30.00 km/h | 69.00% | 1000.70 hPa
  • 14-10-2018 17:00:00 | 16.10°C | Oeste |34.00 km/h | 67.00% | 1000.90 hPa
  • 14-10-2018 16:00:00 | 15.70°C | Oeste |33.00 km/h | 69.00% | 1001.10 hPa
  • 14-10-2018 15:00:00 | 15.40°C | Noroeste |21.00 km/h | 69.00% | 1001.30 hPa
  • 14-10-2018 14:00:00 | 15.90°C | Oeste |17.00 km/h | 70.00% | 1001.40 hPa
  • 14-10-2018 13:00:00 | 14.80°C | Noroeste |21.00 km/h | 75.00% | 1001.10 hPa
  • 14-10-2018 12:00:00 | 14.30°C | Noroeste |25.00 km/h | 79.00% | 1000.40 hPa
  • 14-10-2018 11:00:00 | 14.00°C | Norte |30.00 km/h | 81.00% | 999.70 hPa
  • 14-10-2018 10:00:00 | 13.00°C | Oeste |21.00 km/h | 88.00% | 998.60 hPa
  • 14-10-2018 09:00:00 | 12.10°C | Oeste |39.00 km/h | 86.00% | 997.20 hPa
  • 14-10-2018 08:00:00 | 11.80°C | Oeste |44.00 km/h | 85.00% | 996.20 hPa
  • 14-10-2018 07:00:00 | 11.10°C | Oeste |31.00 km/h | 85.00% | 996.40 hPa
  • 14-10-2018 06:00:00 | 11.20°C | Oeste |30.00 km/h | 85.00% | 995.90 hPa
  • 14-10-2018 05:00:00 | 11.70°C | Oeste |34.00 km/h | 87.00% | 995.60 hPa
  • 14-10-2018 04:00:00 | 12.10°C | Oeste |36.00 km/h | 90.00% | 995.60 hPa
  • 14-10-2018 03:00:00 | 12.30°C | Oeste |36.00 km/h | 90.00% | 994.90 hPa
  • 14-10-2018 02:00:00 | 11.90°C | Oeste |24.00 km/h | 89.00% | 996.20 hPa
  • 14-10-2018 01:00:00 | 12.00°C | Oeste |24.00 km/h | 89.00% | 997.20 hPa
  • 14-10-2018 00:00:00 | 12.10°C | Oeste |18.00 km/h | 88.00% | 997.50 hPa
  • 13-10-2018 23:00:00 | 12.60°C | Oeste |30.00 km/h | 87.00% | 998.00 hPa
  • 13-10-2018 22:00:00 | 12.90°C | Oeste |21.00 km/h | 87.00% | 998.40 hPa
  • 13-10-2018 21:00:00 | 13.20°C | Oeste |46.00 km/h | 86.00% | 998.40 hPa
  • 13-10-2018 20:00:00 | 13.70°C | Oeste |54.00 km/h | 85.00% | 997.80 hPa